createdAt,value
2023-02-26T00:00:35.103Z,62.50
2023-02-26T00:06:02.807Z,62.66
2023-02-26T00:11:08.869Z,62.73
2023-02-26T00:16:33.164Z,62.53
2023-02-26T00:21:37.493Z,62.08
2023-02-26T00:26:41.643Z,61.92
2023-02-26T00:31:46.932Z,61.76
2023-02-26T00:36:55.179Z,61.40
2023-02-26T00:42:38.025Z,61.40
2023-02-26T00:48:15.845Z,60.92
2023-02-26T00:53:40.896Z,60.86
2023-02-26T00:58:44.859Z,61.00
2023-02-26T01:03:49.101Z,60.85
2023-02-26T01:09:03.326Z,61.08
2023-02-26T01:14:07.980Z,60.77
2023-02-26T01:19:26.713Z,60.84
2023-02-26T01:24:32.085Z,60.93
2023-02-26T01:29:36.128Z,61.04
2023-02-26T01:34:52.989Z,61.12
2023-02-26T01:40:05.834Z,61.71
2023-02-26T01:45:18.059Z,62.02
2023-02-26T01:50:26.114Z,61.96
2023-02-26T01:55:30.990Z,62.01
2023-02-26T02:00:35.131Z,62.01
2023-02-26T02:05:51.508Z,61.86
2023-02-26T02:11:10.491Z,61.56
2023-02-26T02:16:48.310Z,61.14
2023-02-26T02:22:07.600Z,61.17
2023-02-26T02:27:30.981Z,59.98
2023-02-26T02:32:45.088Z,60.04
2023-02-26T02:38:14.766Z,59.56
2023-02-26T02:43:25.083Z,59.45
2023-02-26T02:48:34.299Z,59.23
2023-02-26T02:53:50.799Z,59.27
2023-02-26T02:58:59.367Z,59.43
2023-02-26T03:04:11.828Z,59.24
2023-02-26T03:09:17.797Z,59.57
2023-02-26T03:14:22.055Z,59.62
2023-02-26T03:19:42.013Z,60.09
2023-02-26T03:24:56.445Z,60.57
2023-02-26T03:30:03.117Z,60.19
2023-02-26T03:35:18.933Z,59.47
2023-02-26T03:40:42.585Z,59.48
2023-02-26T03:46:26.330Z,58.90
2023-02-26T03:51:40.934Z,59.21
2023-02-26T03:57:06.194Z,59.23
2023-02-26T04:02:44.900Z,59.41
2023-02-26T04:07:52.609Z,58.96
2023-02-26T04:13:01.114Z,58.49
2023-02-26T04:18:15.484Z,58.15
2023-02-26T04:23:19.959Z,58.19
2023-02-26T04:28:23.533Z,58.03
2023-02-26T04:33:27.687Z,57.53
2023-02-26T04:38:33.676Z,57.15
2023-02-26T04:43:38.091Z,56.81
2023-02-26T04:49:08.887Z,56.82
2023-02-26T04:54:13.320Z,56.45
2023-02-26T04:59:19.669Z,56.52
2023-02-26T05:04:23.315Z,56.02
2023-02-26T05:09:28.421Z,55.41
2023-02-26T05:14:32.767Z,55.23
2023-02-26T05:19:36.649Z,55.15
2023-02-26T05:24:41.966Z,55.14
2023-02-26T05:29:47.155Z,55.55
2023-02-26T05:35:00.041Z,56.28
2023-02-26T05:40:07.399Z,55.89
2023-02-26T05:45:11.892Z,55.92
2023-02-26T05:50:16.075Z,56.23
2023-02-26T05:55:20.211Z,55.71
2023-02-26T06:00:24.110Z,56.02
2023-02-26T06:05:28.161Z,56.52
2023-02-26T06:10:35.050Z,56.75
2023-02-26T06:15:43.634Z,56.65
2023-02-26T06:20:47.415Z,57.55
2023-02-26T06:25:52.989Z,58.12
2023-02-26T06:30:56.639Z,59.37
2023-02-26T06:36:00.869Z,60.52
2023-02-26T06:41:09.106Z,61.30
2023-02-26T06:46:14.650Z,61.21
2023-02-26T06:51:18.304Z,62.07
2023-02-26T06:56:24.243Z,62.47
2023-02-26T07:01:36.879Z,61.58
2023-02-26T07:06:41.772Z,60.22
2023-02-26T07:11:45.575Z,59.69
2023-02-26T07:16:50.605Z,58.80
2023-02-26T07:21:55.262Z,58.15
2023-02-26T07:26:58.814Z,57.47
2023-02-26T07:32:02.971Z,56.73
2023-02-26T07:37:06.774Z,56.29
2023-02-26T07:42:10.273Z,55.44
2023-02-26T07:47:15.437Z,54.56
2023-02-26T07:52:20.159Z,55.34
2023-02-26T07:57:23.633Z,55.64
2023-02-26T08:02:27.543Z,56.10
2023-02-26T08:07:30.904Z,56.45
2023-02-26T08:12:34.652Z,56.58
2023-02-26T08:17:38.001Z,56.29
2023-02-26T08:22:42.272Z,56.46
2023-02-26T08:27:45.884Z,56.09
2023-02-26T08:32:50.163Z,55.32
2023-02-26T08:37:53.429Z,55.76
2023-02-26T08:42:59.021Z,55.42
2023-02-26T08:48:04.632Z,55.20
2023-02-26T08:53:08.379Z,55.29
2023-02-26T08:58:21.645Z,55.58
2023-02-26T09:03:25.149Z,55.19
2023-02-26T09:08:34.134Z,55.41
2023-02-26T09:13:42.700Z,55.31
2023-02-26T09:18:48.634Z,54.30
2023-02-26T09:23:54.112Z,53.87
2023-02-26T09:28:58.362Z,54.36
2023-02-26T09:34:01.732Z,54.52
2023-02-26T09:39:06.575Z,53.63
2023-02-26T09:44:23.875Z,53.23
2023-02-26T09:49:36.553Z,53.04
2023-02-26T09:54:47.201Z,53.71
2023-02-26T09:59:52.381Z,52.29
2023-02-26T10:05:26.618Z,53.37
2023-02-26T10:11:02.377Z,52.03
2023-02-26T10:16:12.700Z,51.59
2023-02-26T10:21:23.941Z,52.03
2023-02-26T10:26:33.550Z,51.96
2023-02-26T10:31:51.893Z,51.37
2023-02-26T10:37:09.308Z,50.18
2023-02-26T10:42:21.566Z,50.31
2023-02-26T10:47:51.955Z,50.39
2023-02-26T10:52:56.128Z,50.89
2023-02-26T10:58:26.425Z,51.45
2023-02-26T11:03:40.922Z,51.01
2023-02-26T11:08:46.523Z,50.58
2023-02-26T11:13:49.902Z,50.04
2023-02-26T11:19:00.624Z,51.89
2023-02-26T11:24:17.671Z,50.18
2023-02-26T11:29:23.508Z,50.42
2023-02-26T11:34:27.360Z,49.59
2023-02-26T11:39:36.607Z,50.66
2023-02-26T11:44:44.820Z,50.47
2023-02-26T11:49:56.736Z,50.18
2023-02-26T11:55:06.213Z,50.24
2023-02-26T12:00:24.089Z,50.99
2023-02-26T12:05:27.843Z,50.67
2023-02-26T12:11:08.997Z,49.75
2023-02-26T12:16:36.081Z,49.34
2023-02-26T12:22:03.036Z,50.02
2023-02-26T12:27:13.120Z,49.52
2023-02-26T12:32:38.955Z,49.83
2023-02-26T12:37:54.216Z,50.46
2023-02-26T12:43:11.789Z,50.80
2023-02-26T12:48:51.456Z,51.35
2023-02-26T12:53:58.099Z,52.33
2023-02-26T12:59:04.663Z,53.70
2023-02-26T13:04:24.351Z,53.15
2023-02-26T13:10:36.271Z,53.40
2023-02-26T13:16:46.156Z,53.72
2023-02-26T13:23:13.217Z,53.66
2023-02-26T13:29:23.394Z,55.60
2023-02-26T13:35:27.071Z,53.88
2023-02-26T13:41:52.482Z,53.46
2023-02-26T13:48:12.223Z,53.87
2023-02-26T13:54:10.257Z,53.42
2023-02-26T14:00:33.341Z,53.00
2023-02-26T14:07:17.595Z,51.65
2023-02-26T14:13:41.597Z,51.80
2023-02-26T14:19:36.819Z,51.54
2023-02-26T14:25:49.787Z,51.07
2023-02-26T14:31:36.457Z,51.82
2023-02-26T14:44:55.660Z,51.14
2023-02-26T14:51:06.541Z,51.03
2023-02-26T15:05:10.330Z,51.18
2023-02-26T15:10:50.368Z,51.41
2023-02-26T15:17:48.525Z,51.08
2023-02-26T15:24:34.850Z,50.88
2023-02-26T15:38:02.993Z,49.71
2023-02-26T15:44:57.430Z,50.81
2023-02-26T15:50:55.013Z,51.53
2023-02-26T15:57:12.282Z,51.81
2023-02-26T16:02:39.533Z,53.58
2023-02-26T16:08:48.806Z,53.00
2023-02-26T16:15:19.511Z,52.73
2023-02-26T16:21:44.332Z,53.31
2023-02-26T16:27:44.730Z,53.13
2023-02-26T16:34:21.390Z,53.27
2023-02-26T16:41:14.019Z,53.02
2023-02-26T16:46:42.625Z,53.25
2023-02-26T16:52:57.194Z,53.42
2023-02-26T16:59:09.024Z,53.62
2023-02-26T17:05:25.741Z,53.56
2023-02-26T17:11:51.676Z,53.31
2023-02-26T17:25:06.915Z,53.73
2023-02-26T17:30:44.039Z,54.32
2023-02-26T17:51:23.237Z,54.68
2023-02-26T17:56:52.941Z,55.20
2023-02-26T18:17:15.997Z,53.43
2023-02-26T18:23:20.403Z,53.46
2023-02-26T18:44:58.289Z,53.61
2023-02-26T18:57:27.358Z,53.66
2023-02-26T19:03:56.612Z,53.75
2023-02-26T19:10:12.951Z,53.64
2023-02-26T19:16:35.120Z,53.46
2023-02-26T19:35:36.775Z,53.22
2023-02-26T19:42:15.516Z,53.21
2023-02-26T19:47:57.042Z,52.44
2023-02-26T19:53:37.473Z,53.15
2023-02-26T20:02:51.236Z,53.25
2023-02-26T20:09:16.252Z,53.44
2023-02-26T20:15:23.708Z,52.44
2023-02-26T20:21:11.562Z,51.82
2023-02-26T20:26:20.893Z,51.84
2023-02-26T20:32:00.783Z,51.83
2023-02-26T20:38:25.298Z,52.39
2023-02-26T20:44:39.502Z,52.00
2023-02-26T20:50:38.891Z,52.03
2023-02-26T20:57:09.079Z,51.59
2023-02-26T21:02:52.865Z,51.81
2023-02-26T21:08:28.713Z,51.83
2023-02-26T21:14:07.862Z,52.15
2023-02-26T21:20:19.268Z,52.33
2023-02-26T21:26:26.101Z,51.83
2023-02-26T21:32:50.300Z,51.93
2023-02-26T21:38:52.141Z,52.11
2023-02-26T21:45:31.863Z,52.08
2023-02-26T21:52:02.584Z,52.18
2023-02-26T21:58:09.907Z,51.88
2023-02-26T22:04:19.960Z,51.94
2023-02-26T22:17:39.118Z,52.05
2023-02-26T22:31:55.428Z,52.94
2023-02-26T22:38:29.036Z,52.47
2023-02-26T22:44:34.436Z,52.55
2023-02-26T22:50:14.889Z,52.71
2023-02-26T23:03:15.414Z,52.87
2023-02-26T23:09:47.190Z,52.91
2023-02-26T23:16:09.065Z,52.98
2023-02-26T23:28:17.185Z,53.48
2023-02-26T23:33:53.619Z,54.10
2023-02-26T23:39:57.300Z,54.97
2023-02-26T23:46:05.353Z,55.28
2023-02-26T23:52:29.995Z,55.68
2023-02-26T23:58:26.854Z,55.62
